createdAt,value
2022-09-05T00:00:05.764Z,3.50
2022-09-05T00:02:39.343Z,3.73
2022-09-05T00:05:35.123Z,4.10
2022-09-05T00:08:17.748Z,4.07
2022-09-05T00:11:39.331Z,3.70
2022-09-05T00:13:48.141Z,3.97
2022-09-05T00:16:35.521Z,3.80
2022-09-05T00:22:05.023Z,3.57
2022-09-05T00:24:28.940Z,3.60
2022-09-05T00:25:44.015Z,3.50
2022-09-05T00:28:25.971Z,3.97
2022-09-05T00:31:56.088Z,3.83
2022-09-05T00:34:09.648Z,3.90
2022-09-05T00:36:44.852Z,3.63
2022-09-05T00:39:17.846Z,3.77
2022-09-05T00:41:50.455Z,3.60
2022-09-05T00:44:21.462Z,3.70
2022-09-05T00:46:56.785Z,4.13
2022-09-05T00:49:29.089Z,4.20
2022-09-05T00:52:03.261Z,3.80
2022-09-05T00:54:44.258Z,3.67
2022-09-05T00:57:53.656Z,3.60
2022-09-05T01:00:23.847Z,3.97
2022-09-05T01:03:31.407Z,3.20
2022-09-05T01:06:13.706Z,4.03
2022-09-05T01:09:07.932Z,3.40
2022-09-05T01:11:45.700Z,3.30
2022-09-05T01:14:45.161Z,3.60
2022-09-05T01:17:25.092Z,3.40
2022-09-05T01:20:19.359Z,3.83
2022-09-05T01:23:15.406Z,3.80
2022-09-05T01:26:00.416Z,3.70
2022-09-05T01:29:15.389Z,3.77
2022-09-05T01:31:34.707Z,3.77
2022-09-05T01:34:12.500Z,3.77
2022-09-05T01:36:58.437Z,3.97
2022-09-05T01:40:11.394Z,3.73
2022-09-05T01:42:36.896Z,4.10
2022-09-05T01:45:11.125Z,3.50
2022-09-05T01:47:57.492Z,3.60
2022-09-05T01:50:43.720Z,3.40
2022-09-05T01:53:34.332Z,3.17
2022-09-05T01:56:37.007Z,2.90
2022-09-05T01:59:34.781Z,3.80
2022-09-05T02:02:17.554Z,3.37
2022-09-05T02:05:11.797Z,3.70
2022-09-05T02:07:59.941Z,3.80
2022-09-05T02:10:54.645Z,3.50
2022-09-05T02:13:30.037Z,3.83
2022-09-05T02:16:04.606Z,3.40
2022-09-05T02:18:53.883Z,3.87
2022-09-05T02:21:56.500Z,3.77
2022-09-05T02:24:36.258Z,3.80
2022-09-05T02:27:35.881Z,4.30
2022-09-05T02:30:10.049Z,3.70
2022-09-05T02:32:49.159Z,3.50
2022-09-05T02:35:25.533Z,3.77
2022-09-05T02:39:02.505Z,3.70
2022-09-05T02:45:06.292Z,3.97
2022-09-05T02:45:08.932Z,3.57
2022-09-05T02:46:46.613Z,3.90
2022-09-05T02:50:28.248Z,3.63
2022-09-05T02:57:26.661Z,3.77
2022-09-05T02:57:40.248Z,3.17
2022-09-05T02:58:04.531Z,4.47
2022-09-05T03:00:42.305Z,4.33
2022-09-05T03:03:21.032Z,3.40
2022-09-05T03:05:57.790Z,3.50
2022-09-05T03:08:43.998Z,3.70
2022-09-05T03:11:44.700Z,3.27
2022-09-05T03:14:51.157Z,3.40
2022-09-05T03:18:20.806Z,3.87
2022-09-05T03:21:23.113Z,4.00
2022-09-05T03:24:29.900Z,4.03
2022-09-05T03:27:29.312Z,3.47
2022-09-05T03:30:08.303Z,4.20
2022-09-05T03:33:11.972Z,4.00
2022-09-05T03:36:11.606Z,3.50
2022-09-05T03:39:08.917Z,4.40
2022-09-05T03:41:55.299Z,3.63
2022-09-05T03:44:37.581Z,3.40
2022-09-05T03:47:29.856Z,3.67
2022-09-05T03:53:29.397Z,3.40
2022-09-05T03:57:07.654Z,3.60
2022-09-05T03:57:13.962Z,3.90
2022-09-05T03:59:47.288Z,3.43
2022-09-05T04:03:40.851Z,4.20
2022-09-05T04:08:26.540Z,3.50
2022-09-05T04:08:34.133Z,3.70
2022-09-05T04:11:04.071Z,4.43
2022-09-05T04:13:36.984Z,3.57
2022-09-05T04:16:12.847Z,4.73
2022-09-05T04:18:43.850Z,3.80
2022-09-05T04:21:17.571Z,3.37
2022-09-05T04:23:59.968Z,3.90
2022-09-05T04:26:47.025Z,4.03
2022-09-05T04:29:20.803Z,3.77
2022-09-05T04:32:07.483Z,4.30
2022-09-05T04:34:58.125Z,4.70
2022-09-05T04:37:47.806Z,4.10
2022-09-05T04:40:55.292Z,4.17
2022-09-05T04:43:31.169Z,4.00
2022-09-05T04:46:08.659Z,3.30
2022-09-05T04:48:44.002Z,4.03
2022-09-05T04:51:30.978Z,4.23
2022-09-05T04:54:19.753Z,3.67
2022-09-05T04:56:51.901Z,3.80
2022-09-05T05:01:24.327Z,4.23
2022-09-05T05:06:14.657Z,4.13
2022-09-05T05:06:22.675Z,4.80
2022-09-05T05:08:13.499Z,3.87
2022-09-05T05:16:26.556Z,4.10
2022-09-05T05:18:00.013Z,4.10
2022-09-05T05:18:09.410Z,4.40
2022-09-05T05:19:31.312Z,4.17
2022-09-05T05:22:04.764Z,4.00
2022-09-05T05:24:39.869Z,4.57
2022-09-05T05:27:13.782Z,4.70
2022-09-05T05:29:49.508Z,4.00
2022-09-05T05:32:31.645Z,3.90
2022-09-05T05:35:13.205Z,4.50
2022-09-05T05:37:46.653Z,4.77
2022-09-05T05:40:25.475Z,4.67
2022-09-05T05:42:54.288Z,5.43
2022-09-05T05:45:27.649Z,5.63
2022-09-05T05:48:00.070Z,4.57
2022-09-05T05:50:37.457Z,5.33
2022-09-05T05:53:41.054Z,4.97
2022-09-05T05:56:36.216Z,5.20
2022-09-05T05:59:56.258Z,5.43
2022-09-05T06:03:25.540Z,4.80
2022-09-05T06:06:23.123Z,5.07
2022-09-05T06:14:51.930Z,4.47
2022-09-05T06:15:06.091Z,5.60
2022-09-05T06:16:23.405Z,5.30
2022-09-05T06:19:17.230Z,5.73
2022-09-05T06:22:15.798Z,5.20
2022-09-05T06:25:18.992Z,6.10
2022-09-05T06:28:19.513Z,6.40
2022-09-05T06:30:57.623Z,6.10
2022-09-05T06:33:53.189Z,6.43
2022-09-05T06:36:43.860Z,6.83
2022-09-05T06:39:17.558Z,6.83
2022-09-05T06:42:05.025Z,6.60
2022-09-05T06:45:26.264Z,6.10
2022-09-05T06:48:10.319Z,6.00
2022-09-05T06:51:10.800Z,5.30
2022-09-05T06:54:08.681Z,5.10
2022-09-05T06:56:50.960Z,6.20
2022-09-05T06:59:59.245Z,5.70
2022-09-05T07:02:59.857Z,6.00
2022-09-05T07:05:39.763Z,5.83
2022-09-05T07:08:36.551Z,6.43
2022-09-05T07:11:16.363Z,5.97
2022-09-05T07:13:55.513Z,5.97
2022-09-05T07:16:37.924Z,6.17
2022-09-05T07:19:33.625Z,5.93
2022-09-05T07:22:47.464Z,5.10
2022-09-05T07:25:18.090Z,6.30
2022-09-05T07:28:29.310Z,5.10
2022-09-05T07:30:42.561Z,5.30
2022-09-05T07:33:10.708Z,5.43
2022-09-05T07:35:42.255Z,5.30
2022-09-05T07:38:15.880Z,5.60
2022-09-05T07:40:51.435Z,5.23
2022-09-05T07:43:23.771Z,5.57
2022-09-05T07:46:03.958Z,5.57
2022-09-05T07:48:36.617Z,4.90
2022-09-05T07:56:46.101Z,5.37
2022-09-05T07:57:00.085Z,5.93
2022-09-05T07:57:22.282Z,5.07
2022-09-05T07:59:40.328Z,5.17
2022-09-05T08:02:11.395Z,5.57
2022-09-05T08:04:40.801Z,6.90
2022-09-05T08:07:47.022Z,4.97
2022-09-05T08:10:09.776Z,5.83
2022-09-05T08:12:51.186Z,5.00
2022-09-05T08:15:41.000Z,5.70
2022-09-05T08:18:23.918Z,5.47
2022-09-05T08:20:56.225Z,5.30
2022-09-05T08:23:37.909Z,5.00
2022-09-05T08:26:11.753Z,5.00
2022-09-05T08:28:53.546Z,5.50
2022-09-05T08:31:24.990Z,5.97
2022-09-05T08:34:00.257Z,5.43
2022-09-05T08:36:34.800Z,5.23
2022-09-05T08:39:05.529Z,5.43
2022-09-05T08:41:52.306Z,5.40
2022-09-05T08:46:43.071Z,5.30
2022-09-05T08:47:33.082Z,5.37
2022-09-05T08:50:39.132Z,5.00
2022-09-05T08:53:36.006Z,4.70
2022-09-05T08:56:05.891Z,4.77
2022-09-05T08:59:31.699Z,5.03
2022-09-05T09:02:14.572Z,5.40
2022-09-05T09:05:03.104Z,5.20
2022-09-05T09:07:50.565Z,5.00
2022-09-05T09:10:30.130Z,5.77
2022-09-05T09:13:29.172Z,5.77
2022-09-05T09:16:06.507Z,5.80
2022-09-05T09:18:42.860Z,4.83
2022-09-05T09:21:25.234Z,5.40
2022-09-05T09:24:06.728Z,4.60
2022-09-05T09:26:41.922Z,5.37
2022-09-05T09:29:13.195Z,5.20
2022-09-05T09:32:00.380Z,5.13
2022-09-05T09:34:51.844Z,5.23
2022-09-05T09:37:58.728Z,5.50
2022-09-05T09:41:04.001Z,5.70
2022-09-05T09:43:52.823Z,5.80
2022-09-05T09:46:30.505Z,5.00
2022-09-05T09:49:22.974Z,4.80
2022-09-05T09:52:22.005Z,5.10
2022-09-05T09:55:39.753Z,4.73
2022-09-05T09:58:39.147Z,6.10
2022-09-05T10:01:36.483Z,5.83
2022-09-05T10:10:32.926Z,5.70
2022-09-05T10:10:49.593Z,5.50
2022-09-05T10:11:50.026Z,6.40
2022-09-05T10:14:49.083Z,5.20
2022-09-05T10:17:43.273Z,4.77
2022-09-05T10:20:41.696Z,5.30
2022-09-05T10:23:28.754Z,6.93
2022-09-05T10:26:24.705Z,5.60
2022-09-05T10:29:37.077Z,5.47
2022-09-05T10:34:49.081Z,5.03
2022-09-05T10:35:14.036Z,5.00
2022-09-05T10:37:51.416Z,5.00
2022-09-05T10:40:23.303Z,5.03
2022-09-05T10:43:00.634Z,4.90
2022-09-05T10:45:39.708Z,5.37
2022-09-05T10:48:19.260Z,5.20
2022-09-05T10:50:54.488Z,4.87
2022-09-05T10:53:39.196Z,4.87
2022-09-05T10:56:13.069Z,5.70
2022-09-05T11:01:06.920Z,5.07
2022-09-05T11:02:22.751Z,5.47
2022-09-05T11:04:53.970Z,5.40
2022-09-05T11:07:32.401Z,4.60
2022-09-05T11:10:07.849Z,5.00
2022-09-05T11:12:58.541Z,4.77
2022-09-05T11:15:35.155Z,5.10
2022-09-05T11:18:08.593Z,5.37
2022-09-05T11:20:46.885Z,4.70
2022-09-05T11:23:20.982Z,4.80
2022-09-05T11:25:57.174Z,5.73
2022-09-05T11:28:36.950Z,4.70
2022-09-05T11:31:13.194Z,5.73
2022-09-05T11:39:54.773Z,5.10
2022-09-05T11:40:09.968Z,4.90
2022-09-05T11:40:51.157Z,5.60
2022-09-05T11:44:24.584Z,5.77
2022-09-05T11:46:50.376Z,5.27
2022-09-05T11:49:44.489Z,5.23
2022-09-05T11:52:40.660Z,5.07
2022-09-05T11:55:27.276Z,4.93
2022-09-05T11:58:43.930Z,5.63
2022-09-05T12:01:42.448Z,5.30
2022-09-05T12:04:16.934Z,5.63
2022-09-05T12:07:30.343Z,5.40
2022-09-05T12:10:10.405Z,5.10
2022-09-05T12:13:16.023Z,5.40
2022-09-05T12:16:03.071Z,5.70
2022-09-05T12:18:41.613Z,5.20
2022-09-05T12:21:26.382Z,4.90
2022-09-05T12:25:17.045Z,5.17
2022-09-05T12:27:44.345Z,5.10
2022-09-05T12:29:52.267Z,5.30
2022-09-05T12:35:49.987Z,5.07
2022-09-05T12:36:07.010Z,5.70
2022-09-05T12:41:31.967Z,5.00
2022-09-05T12:41:44.938Z,4.90
2022-09-05T12:44:41.753Z,5.50
2022-09-05T12:47:18.845Z,6.07
2022-09-05T12:50:02.906Z,6.23
2022-09-05T12:52:46.478Z,5.87
2022-09-05T12:55:25.868Z,5.63
2022-09-05T13:03:04.203Z,6.30
2022-09-05T13:03:06.704Z,6.53
2022-09-05T13:04:13.336Z,5.97
2022-09-05T13:06:38.958Z,5.90
2022-09-05T13:09:11.330Z,5.80
2022-09-05T13:14:56.823Z,6.63
2022-09-05T13:15:11.471Z,6.23
2022-09-05T13:17:45.484Z,6.50
2022-09-05T13:20:19.173Z,6.20
2022-09-05T13:22:50.449Z,5.57
2022-09-05T13:25:24.950Z,6.07
2022-09-05T13:27:58.986Z,5.50
2022-09-05T13:33:01.936Z,6.13
2022-09-05T13:38:19.480Z,5.23
2022-09-05T13:38:29.398Z,6.20
2022-09-05T13:39:06.000Z,5.40
2022-09-05T13:41:38.661Z,6.30
2022-09-05T13:44:27.464Z,6.37
2022-09-05T13:46:59.657Z,6.07
2022-09-05T13:49:33.117Z,5.90
2022-09-05T13:52:17.920Z,6.60
2022-09-05T13:54:51.681Z,5.67
2022-09-05T13:57:35.613Z,6.30
2022-09-05T14:00:51.278Z,6.30
2022-09-05T14:03:50.900Z,6.10
2022-09-05T14:06:48.941Z,5.83
2022-09-05T14:09:46.704Z,5.70
2022-09-05T14:12:29.276Z,6.37
2022-09-05T14:15:11.007Z,5.47
2022-09-05T14:17:58.248Z,5.90
2022-09-05T14:20:49.445Z,6.30
2022-09-05T14:23:19.979Z,5.60
2022-09-05T14:25:52.439Z,5.10
2022-09-05T14:28:26.694Z,5.83
2022-09-05T14:32:48.403Z,6.10
2022-09-05T14:37:44.747Z,5.37
2022-09-05T14:38:01.356Z,5.10
2022-09-05T14:40:30.352Z,4.23
2022-09-05T14:43:27.137Z,5.60
2022-09-05T14:46:42.848Z,5.20
2022-09-05T14:49:31.707Z,4.90
2022-09-05T14:51:59.625Z,4.40
2022-09-05T15:02:45.107Z,5.03
2022-09-05T15:02:53.583Z,5.73
2022-09-05T15:03:05.322Z,5.43
2022-09-05T15:05:41.629Z,4.63
2022-09-05T15:08:29.864Z,5.50
2022-09-05T15:12:20.853Z,5.30
2022-09-05T15:13:57.272Z,4.80
2022-09-05T15:16:26.406Z,4.80
2022-09-05T15:18:56.206Z,4.60
2022-09-05T15:21:34.048Z,5.00
2022-09-05T15:24:13.442Z,4.80
2022-09-05T15:26:51.223Z,4.80
2022-09-05T15:29:23.557Z,4.83
2022-09-05T15:31:53.270Z,4.70
2022-09-05T15:34:38.581Z,4.40
2022-09-05T15:37:23.096Z,4.30
2022-09-05T15:40:01.134Z,4.80
2022-09-05T15:42:32.448Z,5.17
2022-09-05T15:45:10.575Z,4.67
2022-09-05T15:47:44.501Z,4.70
2022-09-05T15:50:22.033Z,5.37
2022-09-05T15:52:55.709Z,4.63
2022-09-05T15:55:25.176Z,4.83
2022-09-05T15:57:56.492Z,4.83
2022-09-05T16:00:43.646Z,5.03
2022-09-05T16:04:38.085Z,5.20
2022-09-05T16:10:42.369Z,4.63
2022-09-05T16:10:46.733Z,4.63
2022-09-05T16:15:51.393Z,4.83
2022-09-05T16:23:24.939Z,4.33
2022-09-05T16:23:26.018Z,4.63
2022-09-05T16:23:40.523Z,4.50
2022-09-05T16:26:14.181Z,4.57
2022-09-05T16:28:57.704Z,4.47
2022-09-05T16:31:33.670Z,4.63
2022-09-05T16:34:02.737Z,4.20
2022-09-05T16:36:48.789Z,3.33
2022-09-05T16:39:32.235Z,5.10
2022-09-05T16:42:08.869Z,4.57
2022-09-05T16:44:43.745Z,4.20
2022-09-05T16:47:22.212Z,4.23
2022-09-05T16:49:58.831Z,3.93
2022-09-05T16:52:36.006Z,3.50
2022-09-05T16:55:11.858Z,3.77
2022-09-05T16:57:44.292Z,3.63
2022-09-05T17:00:16.482Z,3.43
2022-09-05T17:02:53.473Z,4.40
2022-09-05T17:05:31.457Z,4.40
2022-09-05T17:08:05.149Z,3.77
2022-09-05T17:10:35.627Z,4.00
2022-09-05T17:13:06.789Z,4.40
2022-09-05T17:15:37.212Z,3.90
2022-09-05T17:18:21.768Z,4.17
2022-09-05T17:20:55.699Z,4.00
2022-09-05T17:28:13.682Z,3.93
2022-09-05T17:29:30.889Z,2.97
2022-09-05T17:32:47.702Z,3.70
2022-09-05T17:35:42.613Z,4.10
2022-09-05T17:38:33.600Z,3.70
2022-09-05T17:41:14.286Z,3.63
2022-09-05T17:43:42.469Z,4.50
2022-09-05T17:46:20.341Z,3.93
2022-09-05T17:49:20.086Z,3.37
2022-09-05T17:52:17.314Z,3.47
2022-09-05T17:54:49.818Z,3.70
2022-09-05T17:57:36.473Z,4.13
2022-09-05T18:00:49.381Z,4.57
2022-09-05T18:04:17.731Z,4.60
2022-09-05T18:06:59.983Z,3.80
2022-09-05T18:10:12.252Z,3.90
2022-09-05T18:13:12.852Z,3.57
2022-09-05T18:16:11.506Z,3.13
2022-09-05T18:19:32.721Z,3.50
2022-09-05T18:21:48.063Z,3.50
2022-09-05T18:24:25.180Z,3.63
2022-09-05T18:27:47.415Z,3.70
2022-09-05T18:30:03.996Z,4.10
2022-09-05T18:32:45.312Z,3.30
2022-09-05T18:35:36.452Z,3.63
2022-09-05T18:38:26.095Z,3.40
2022-09-05T18:41:14.660Z,3.03
2022-09-05T18:44:12.655Z,3.10
2022-09-05T18:46:43.266Z,3.43
2022-09-05T18:50:15.805Z,3.53
2022-09-05T18:52:04.970Z,3.40
2022-09-05T18:54:35.979Z,3.50
2022-09-05T18:57:24.179Z,3.60
2022-09-05T18:59:59.520Z,3.30
2022-09-05T19:02:49.892Z,3.97
2022-09-05T19:05:28.433Z,3.10
2022-09-05T19:07:59.425Z,3.07
2022-09-05T19:10:34.481Z,3.50
2022-09-05T19:13:13.817Z,3.60
2022-09-05T19:15:49.811Z,3.63
2022-09-05T19:18:26.567Z,4.17
2022-09-05T19:21:12.028Z,3.40
2022-09-05T19:23:44.224Z,3.23
2022-09-05T19:26:12.962Z,3.13
2022-09-05T19:36:44.149Z,3.53
2022-09-05T19:36:55.714Z,3.80
2022-09-05T19:37:08.545Z,3.30
2022-09-05T19:37:28.896Z,3.60
2022-09-05T19:46:17.052Z,3.40
2022-09-05T19:47:34.265Z,3.63
2022-09-05T19:47:37.850Z,3.37
2022-09-05T19:48:28.655Z,3.40
2022-09-05T19:50:57.536Z,3.47
2022-09-05T19:53:25.944Z,3.83
2022-09-05T19:55:54.409Z,3.30
2022-09-05T19:58:23.986Z,3.17
2022-09-05T20:01:03.288Z,3.57
2022-09-05T20:03:39.549Z,3.47
2022-09-05T20:06:24.669Z,3.30
2022-09-05T20:09:09.665Z,3.70
2022-09-05T20:11:46.429Z,3.67
2022-09-05T20:14:19.633Z,3.33
2022-09-05T20:16:50.081Z,3.57
2022-09-05T20:19:31.759Z,3.27
2022-09-05T20:22:31.769Z,3.63
2022-09-05T20:24:55.280Z,3.40
2022-09-05T20:27:27.519Z,3.60
2022-09-05T20:29:58.928Z,3.10
2022-09-05T20:32:39.523Z,3.20
2022-09-05T20:43:01.475Z,3.50
2022-09-05T20:43:18.213Z,3.20
2022-09-05T20:43:30.696Z,2.90
2022-09-05T20:43:54.427Z,3.17
2022-09-05T20:50:44.452Z,3.23
2022-09-05T20:54:13.741Z,3.10
2022-09-05T20:54:24.430Z,3.43
2022-09-05T20:55:38.012Z,3.60
2022-09-05T20:58:09.461Z,3.83
2022-09-05T21:00:39.619Z,4.17
2022-09-05T21:03:09.188Z,3.20
2022-09-05T21:05:40.284Z,2.63
2022-09-05T21:08:32.866Z,3.00
2022-09-05T21:11:02.815Z,3.20
2022-09-05T21:13:32.916Z,3.20
2022-09-05T21:16:01.953Z,3.80
2022-09-05T21:18:33.480Z,3.57
2022-09-05T21:21:06.930Z,2.80
2022-09-05T21:24:18.212Z,3.57
2022-09-05T21:26:47.927Z,3.27
2022-09-05T21:29:17.438Z,3.20
2022-09-05T21:31:49.162Z,3.07
2022-09-05T21:34:26.451Z,3.33
2022-09-05T21:37:07.458Z,2.90
2022-09-05T21:39:40.015Z,3.13
2022-09-05T21:43:06.534Z,3.47
2022-09-05T21:47:43.438Z,3.10
2022-09-05T21:47:53.305Z,3.33
2022-09-05T21:50:31.639Z,2.97
2022-09-05T21:54:51.711Z,3.30
2022-09-05T21:59:17.851Z,2.90
2022-09-05T21:59:24.587Z,2.97
2022-09-05T22:01:51.679Z,2.93
2022-09-05T22:04:17.477Z,2.73
2022-09-05T22:06:48.580Z,2.70
2022-09-05T22:09:19.815Z,2.70
2022-09-05T22:11:50.440Z,2.90
2022-09-05T22:14:18.657Z,2.80
2022-09-05T22:16:47.333Z,2.70
2022-09-05T22:19:22.446Z,3.07
2022-09-05T22:21:52.687Z,3.03
2022-09-05T22:24:23.967Z,3.37
2022-09-05T22:27:11.890Z,3.00
2022-09-05T22:29:40.784Z,2.97
2022-09-05T22:32:08.818Z,3.13
2022-09-05T22:34:36.864Z,3.03
2022-09-05T22:37:04.565Z,3.03
2022-09-05T22:39:37.741Z,3.20
2022-09-05T22:42:07.641Z,2.80
2022-09-05T22:44:39.063Z,3.00
2022-09-05T22:47:07.002Z,3.20
2022-09-05T22:49:36.240Z,2.80
2022-09-05T22:52:05.044Z,2.73
2022-09-05T22:54:34.259Z,3.40
2022-09-05T22:57:02.304Z,2.70
2022-09-05T22:59:30.078Z,3.00
2022-09-05T23:01:57.771Z,3.10
2022-09-05T23:04:25.869Z,3.23
2022-09-05T23:06:54.069Z,2.83
2022-09-05T23:09:21.748Z,2.93
2022-09-05T23:11:50.713Z,2.50
2022-09-05T23:14:18.378Z,2.80
2022-09-05T23:16:46.009Z,2.70
2022-09-05T23:19:13.688Z,2.57
2022-09-05T23:21:41.327Z,2.70
2022-09-05T23:24:08.962Z,3.10
2022-09-05T23:26:36.659Z,3.00
2022-09-05T23:29:05.697Z,3.10
2022-09-05T23:31:33.360Z,2.80
2022-09-05T23:34:01.030Z,2.47
2022-09-05T23:36:28.724Z,2.70
2022-09-05T23:38:56.364Z,2.87
2022-09-05T23:41:24.000Z,2.50
2022-09-05T23:43:51.638Z,2.77
2022-09-05T23:46:20.747Z,2.40
2022-09-05T23:48:48.426Z,2.70
2022-09-05T23:51:16.249Z,2.90
2022-09-05T23:53:45.999Z,2.57
2022-09-05T23:56:13.645Z,2.60
2022-09-05T23:58:41.370Z,2.47
